RJCC/CTS METAR and TAF weather

Enter ICAO airport designator
Station Type Date Time Source
RJCC METAR 2019/08/22 15:30 UTC NOAA

RJCC 221530Z 18005KT 150V220 5000 -SHRA BR FEW003 SCT005 BKN008 17/17 Q1010 RMK 1ST003 4ST005 7ST008 A2983


Station Type Date Time Source
RJCC Decoded METAR 2019/08/22 15:30 UTC NOAA

Station name not available
Aug 22, 2019 - 11:30 AM EDT / 2019.08.22 1530 UTC
Wind: from the S (180 degrees) at 6 MPH (5 KT) (direction variable):0
Visibility: 3 mile(s):0
Sky conditions: mostly cloudy
Weather: light rain showers; mist
Temperature: 62 F (17 C)
Dew Point: 62 F (17 C)
Relative Humidity: 100%
Pressure (altimeter): 29.83 in. Hg (1010 hPa)
ob: RJCC 221530Z 18005KT 150V220 5000 -SHRA BR FEW003 SCT005 BKN008 17/17 Q1010 RMK 1ST003 4ST005 7ST008 A2983
cycle: 15

Station Type Date Time Source
RJCC TAF 2019/08/22 12:30 UTC NOAA

TAF RJCC 221105Z 2212/2318 17010KT 9999 FEW006 BKN015
TEMPO 2212/2300 4000 -SHRA BR FEW004 BKN006
BECMG 2214/2216 35006KT
TEMPO 2300/2309 3000 SHRA BR FEW003 BKN005 FEW025CB
TEMPO 2309/2318 0700 FG VV001
BECMG 2312/2315 15006KT

Example: see airport list